Airfield :
LOGIN :

Register | Disclaimer

   EN    FR    IT 

 










Legend :    VFR   Marginal VFR   IFR   Intensive IFR   Very Intensive IFR
Visi :
Ceiling :
>= 8 km
>= 3000ft
5 to 8 km
1000 to 3000 ft
1500m to 5 km
500 to 1000 ft
800 to 1500m
200 to 500 ft
< 800m
< 200 ft
Symbols :   Thunderstorms  Fog  Heavy snow  Heavy precipitations  Wind > 20 kt
SIGMETs :     Misc.  Thunderstorms  Icing  Turbulence  Mountain Waves  Volcanic Ashes






- Airport Elevation : 11 ft
- IATA code : MJV


LELC - Murcia San Javier

CURRENT METAR :
  • 021630Z 13009KT 080V170 9999 FEW019 SCT030 16/12 Q1011 NOSIG

EXPIRED METARs :
  • 021600Z 13010KT 090V150 9999 SCT030 16/12 Q1011 NOSIG
  • 021530Z 13009KT 080V160 9999 SCT025 16/12 Q1011 NOSIG
  • 021500Z 17003KT 110V220 9999 SCT023 16/11 Q1011 NOSIG
  • 021430Z 21006KT 160V280 9999 VCTS SCT026CB 16/11 Q1011 NOSIG
  • 021400Z 15007KT 110V190 9999 VCTS FEW040CB 16/11 Q1011 NOSIG

TAF TAF LELC
Valid from the 02 at 12:00 until the 03 at 12:00 UTC


021100Z 0212/0312 12010KT 9999 SCT020 BKN035 TX18/0212Z TN10/0306Z
TEMPO 0212/0222 4000 SHRA SCT020TCU BKN030
PROB40
TEMPO 0212/0221 2000 +TSRA BKN015 SCT020CB
BECMG 0220/0223 31007KT
BECMG 0308/0311 05010KT



MET'MAP, your aeronautical weather chart ! - Copyright ORBIFLY December 2007 - Disclaimer

ORBIFLY MET'MAP TEAM :

Programming & Development : Alexandra Zaïnal
Concept & original design : Baudouin d'Aumeries
Assistance for programming : Marc-Olivier Méhu
Technical & hardware support : Manuel Goepfert

Contact : metmap@orbifly.com




SOURCES & CREDITS :

   NOAA